Time;durP1;ratioP1;P1;durP2;ratioP2;P2;SDS_P1;SDS_P2;PMS_P1;PMS_P2;Temp;Humidity;BMP_temperature;BMP_pressure;BME280_temperature;BME280_humidity;BME280_pressure;Samples;Min_cycle;Max_cycle;Signal;HPM_P1;HPM_P2
2022/07/25 00:00:58;;;;;;;9.20;8.40;;;;;;;25.83;50.88;95553.47;4900764;29;20223;-83
2022/07/25 00:03:24;;;;;;;9.80;8.48;;;;;;;25.80;51.28;95554.81;4901298;29;20227;-84
2022/07/25 00:05:52;;;;;;;9.60;8.80;;;;;;;25.73;51.56;95550.91;4902202;29;20548;-84
2022/07/25 00:08:19;;;;;;;9.40;8.77;;;;;;;25.73;51.16;95548.28;4901858;29;20676;-83
2022/07/25 00:10:45;;;;;;;9.23;8.52;;;;;;;25.69;51.43;95539.34;4901179;29;20223;-83
2022/07/25 00:13:11;;;;;;;9.40;8.70;;;;;;;25.74;51.39;95540.09;4901608;29;20241;-83
2022/07/25 00:15:38;;;;;;;8.70;8.10;;;;;;;25.77;51.42;95542.19;4902408;29;20210;-83
2022/07/25 00:18:04;;;;;;;9.15;8.35;;;;;;;25.61;51.86;95543.28;4901579;29;20685;-83
2022/07/25 00:20:31;;;;;;;9.40;8.60;;;;;;;25.56;51.94;95532.78;4900916;29;20221;-83
2022/07/25 00:22:59;;;;;;;9.27;8.40;;;;;;;25.58;52.07;95538.59;4900821;29;20756;-83
2022/07/25 00:25:25;;;;;;;9.43;8.70;;;;;;;25.63;51.91;95535.13;4901879;29;20217;-84
2022/07/25 00:27:52;;;;;;;9.20;8.38;;;;;;;25.61;52.29;95534.59;4901385;29;20576;-83
2022/07/25 00:30:18;;;;;;;9.55;8.75;;;;;;;25.58;52.32;95535.94;4901821;29;20292;-83
2022/07/25 00:32:45;;;;;;;10.60;9.55;;;;;;;25.55;52.57;95525.94;4901545;29;20235;-84
2022/07/25 00:35:11;;;;;;;9.63;8.93;;;;;;;25.55;52.51;95525.94;4900991;29;20203;-83
2022/07/25 00:37:38;;;;;;;9.77;8.98;;;;;;;25.57;52.51;95529.09;4901573;29;20203;-83
2022/07/25 00:40:07;;;;;;;10.10;9.30;;;;;;;25.52;53.17;95525.69;4901173;29;20233;-83
2022/07/25 00:42:35;;;;;;;9.65;8.85;;;;;;;25.50;53.06;95525.94;4901522;29;20238;-83
2022/07/25 00:45:02;;;;;;;9.73;8.80;;;;;;;25.59;52.75;95526.97;4901338;29;20242;-83
2022/07/25 00:47:29;;;;;;;10.13;9.30;;;;;;;25.61;52.46;95524.81;4902211;29;20209;-83
2022/07/25 00:49:55;;;;;;;10.10;9.30;;;;;;;25.57;52.60;95521.19;4901419;29;20325;-83
2022/07/25 00:52:22;;;;;;;10.98;9.80;;;;;;;25.62;52.90;95518.53;4900895;29;20234;-83
2022/07/25 00:54:49;;;;;;;9.48;8.70;;;;;;;25.60;52.74;95525.88;4901428;29;20203;-83
2022/07/25 00:57:17;;;;;;;10.05;9.15;;;;;;;25.53;53.25;95512.22;4901817;29;20214;-84
2022/07/25 00:59:43;;;;;;;9.85;9.15;;;;;;;25.46;53.54;95517.78;4900977;29;20211;-83
2022/07/25 01:02:10;;;;;;;10.10;9.30;;;;;;;25.46;53.69;95517.00;4900705;29;20411;-84
2022/07/25 01:04:36;;;;;;;9.90;9.10;;;;;;;25.38;53.92;95521.00;4900924;29;20222;-83
2022/07/25 01:07:03;;;;;;;10.25;9.23;;;;;;;25.38;53.65;95522.84;4901775;29;20226;-84
2022/07/25 01:09:29;;;;;;;9.77;9.07;;;;;;;25.40;53.66;95510.19;4900864;29;20207;-84
2022/07/25 01:11:56;;;;;;;10.32;9.50;;;;;;;25.33;53.85;95514.97;4900943;29;20270;-84
2022/07/25 01:14:24;;;;;;;10.20;9.30;;;;;;;25.33;53.94;95514.97;4900060;29;20238;-83
2022/07/25 01:16:50;;;;;;;10.15;9.40;;;;;;;25.34;54.42;95513.91;4901175;29;20210;-84
2022/07/25 01:19:16;;;;;;;10.15;9.35;;;;;;;25.35;54.22;95512.84;4901025;29;20207;-84
2022/07/25 01:21:44;;;;;;;10.55;9.55;;;;;;;25.33;54.43;95514.97;4900982;29;20707;-84
2022/07/25 01:24:12;;;;;;;10.55;9.63;;;;;;;25.29;54.06;95509.44;4900004;29;20230;-84
2022/07/25 01:26:38;;;;;;;10.98;10.18;;;;;;;25.09;55.07;95506.91;4900847;29;20203;-84
2022/07/25 01:29:05;;;;;;;10.60;9.70;;;;;;;24.86;55.79;95502.19;4899882;29;20206;-84
2022/07/25 01:31:31;;;;;;;10.23;9.52;;;;;;;24.73;56.67;95500.91;4898836;29;20651;-84
2022/07/25 01:33:59;;;;;;;10.35;9.55;;;;;;;24.84;56.69;95510.38;4899101;29;20313;-84
2022/07/25 01:36:25;;;;;;;10.25;9.35;;;;;;;24.82;56.38;95494.06;4899117;29;20663;-83
2022/07/25 01:38:53;;;;;;;10.13;9.23;;;;;;;24.86;56.02;95496.94;4899480;29;20194;-83
2022/07/25 01:41:19;;;;;;;11.35;10.27;;;;;;;24.90;55.92;95496.13;4899017;29;20616;-83
2022/07/25 01:43:46;;;;;;;10.55;9.60;;;;;;;24.85;56.57;95492.72;4898375;29;20226;-83
2022/07/25 01:46:12;;;;;;;10.50;9.70;;;;;;;24.77;57.16;95488.81;4899171;29;20207;-84
2022/07/25 01:48:40;;;;;;;10.75;9.95;;;;;;;24.79;56.87;95489.31;4899423;29;20206;-83
2022/07/25 01:51:09;;;;;;;10.43;9.50;;;;;;;24.83;56.73;95482.44;4899039;29;20219;-83
2022/07/25 01:53:35;;;;;;;11.43;10.27;;;;;;;24.84;56.64;95488.50;4898935;29;20253;-83
2022/07/25 01:56:04;;;;;;;10.60;9.85;;;;;;;24.83;56.70;95487.72;4899244;29;20226;-84
2022/07/25 01:58:30;;;;;;;11.27;10.38;;;;;;;24.84;56.88;95478.75;4899250;29;20579;-83
2022/07/25 02:00:57;;;;;;;10.80;9.80;;;;;;;24.62;58.00;95486.22;4898089;29;20234;-83
2022/07/25 02:03:29;;;;;;;10.85;9.95;;;;;;;24.57;58.04;95487.00;4898906;29;20241;-83
2022/07/25 02:05:56;;;;;;;11.23;10.15;;;;;;;24.54;57.95;95476.22;4900384;29;20211;-83
2022/07/25 02:08:23;;;;;;;10.77;9.88;;;;;;;24.57;58.04;95478.31;4899429;29;20214;-84
2022/07/25 02:10:49;;;;;;;11.13;10.30;;;;;;;24.64;58.02;95471.69;4899256;29;20808;-83
2022/07/25 02:13:17;;;;;;;11.20;10.27;;;;;;;24.60;58.25;95468.06;4899355;29;20245;-83
2022/07/25 02:15:44;;;;;;;10.77;9.70;;;;;;;24.53;58.53;95467.53;4898821;29;20206;-82
2022/07/25 02:18:10;;;;;;;11.23;10.32;;;;;;;24.45;58.59;95468.06;4899936;29;20412;-84
2022/07/25 02:20:37;;;;;;;11.07;10.18;;;;;;;24.30;59.40;95462.81;4899533;29;20218;-83
2022/07/25 02:23:03;;;;;;;10.82;9.93;;;;;;;24.27;59.65;95464.16;4899142;29;20263;-84
2022/07/25 02:25:30;;;;;;;10.73;9.82;;;;;;;24.03;60.50;95469.16;4884097;29;20231;-83
2022/07/25 02:27:56;;;;;;;10.98;10.07;;;;;;;24.00;60.79;95459.16;4884906;29;20196;-83
2022/07/25 02:30:24;;;;;;;10.85;10.00;;;;;;;24.14;59.92;95459.41;4903760;29;20359;-83
2022/07/25 02:32:51;;;;;;;11.57;10.57;;;;;;;24.26;59.87;95459.13;4903189;29;20317;-84
2022/07/25 02:35:18;;;;;;;10.88;10.07;;;;;;;24.15;60.46;95455.72;4903440;29;20214;-84
2022/07/25 02:37:44;;;;;;;11.57;10.68;;;;;;;23.84;61.69;95454.16;4903816;29;20223;-82
2022/07/25 02:40:11;;;;;;;11.45;10.35;;;;;;;23.79;61.43;95454.94;4902983;29;20214;-83
2022/07/25 02:42:38;;;;;;;11.23;10.32;;;;;;;23.83;61.47;95460.47;4902018;29;20231;-83
2022/07/25 02:45:06;;;;;;;10.98;10.07;;;;;;;23.88;61.48;95452.56;4903054;29;20615;-84
2022/07/25 02:47:34;;;;;;;11.50;10.45;;;;;;;24.03;60.98;95458.63;4902322;29;20207;-83
2022/07/25 02:50:01;;;;;;;11.23;10.35;;;;;;;24.08;60.54;95452.56;4902228;29;20213;-83
2022/07/25 02:52:27;;;;;;;10.43;9.63;;;;;;;24.10;60.69;95458.34;4900333;29;20801;-83
2022/07/25 02:54:54;;;;;;;11.75;10.65;;;;;;;24.15;60.70;95454.94;4902510;29;20207;-84
2022/07/25 02:57:20;;;;;;;11.45;10.55;;;;;;;24.05;61.25;95455.75;4902300;29;20829;-84
2022/07/25 02:59:47;;;;;;;11.25;10.30;;;;;;;24.11;60.60;95460.72;4902519;29;20214;-84
2022/07/25 03:02:13;;;;;;;11.18;10.18;;;;;;;24.15;60.64;95457.56;4901766;29;20222;-84
2022/07/25 03:04:41;;;;;;;11.48;10.43;;;;;;;24.09;61.05;95457.56;4897973;29;20309;-83
2022/07/25 03:07:07;;;;;;;11.40;10.32;;;;;;;24.16;60.52;95459.94;4902039;29;20203;-83
2022/07/25 03:09:35;;;;;;;11.52;10.52;;;;;;;24.08;60.88;95461.25;4902330;29;20702;-83
2022/07/25 03:12:02;;;;;;;11.38;10.38;;;;;;;24.07;61.15;95464.91;4901274;29;20325;-83
2022/07/25 03:14:28;;;;;;;11.27;10.38;;;;;;;24.01;61.50;95459.94;4902089;29;20230;-83
2022/07/25 03:16:55;;;;;;;11.25;10.38;;;;;;;24.01;61.54;95458.09;4901914;29;20199;-83
2022/07/25 03:19:21;;;;;;;11.52;10.55;;;;;;;24.07;61.23;95464.13;4902690;29;20203;-82
2022/07/25 03:21:49;;;;;;;11.20;10.30;;;;;;;24.06;61.30;95463.34;4901727;29;20238;-83
2022/07/25 03:24:17;;;;;;;10.80;9.80;;;;;;;24.05;61.29;95464.38;4902188;29;20242;-84
2022/07/25 03:26:44;;;;;;;11.20;10.20;;;;;;;23.92;62.12;95464.94;4902079;29;20207;-83
2022/07/25 03:29:11;;;;;;;11.18;10.27;;;;;;;23.88;62.09;95458.59;4901609;29;20302;-83
2022/07/25 03:31:37;;;;;;;11.13;10.23;;;;;;;23.82;62.13;95461.53;4901734;29;20229;-83
2022/07/25 03:34:03;;;;;;;11.20;10.35;;;;;;;23.82;62.22;95456.25;4902275;29;20237;-84
2022/07/25 03:36:30;;;;;;;11.18;10.27;;;;;;;23.90;62.02;95458.34;4900644;29;20195;-84
2022/07/25 03:38:58;;;;;;;11.40;10.50;;;;;;;23.86;62.15;95460.72;4901870;29;20203;-82
2022/07/25 03:41:24;;;;;;;11.30;10.50;;;;;;;23.78;62.43;95453.34;4901348;29;20227;-83
2022/07/25 03:43:50;;;;;;;10.90;10.05;;;;;;;23.76;62.33;95451.00;4900932;29;20231;-83
2022/07/25 03:46:17;;;;;;;11.88;10.98;;;;;;;23.56;63.58;95444.91;4901820;29;20207;-84
2022/07/25 03:48:43;;;;;;;11.63;10.73;;;;;;;23.40;64.18;95444.09;4902549;29;20226;-83
2022/07/25 03:51:10;;;;;;;11.43;10.43;;;;;;;23.45;63.43;95448.56;4901700;29;20222;-82
2022/07/25 03:54:00;;;;;;;12.07;11.15;;;;;;;23.61;63.04;95439.69;4900429;29;20227;-84
2022/07/25 03:56:24;;;;;;;11.65;10.60;;;;;;;23.84;62.97;95439.16;4897865;29;20210;-83
2022/07/25 03:58:50;;;;;;;11.65;10.65;;;;;;;24.01;62.61;95447.59;4899930;29;20203;-83
2022/07/25 04:01:17;;;;;;;11.30;10.43;;;;;;;24.17;61.62;95452.81;4896502;29;20223;-83
2022/07/25 04:03:43;;;;;;;12.25;11.10;;;;;;;24.20;61.34;95441.78;4896317;29;20234;-83
2022/07/25 04:06:09;;;;;;;12.48;11.35;;;;;;;24.21;61.21;95452.03;4897183;29;20567;-83
2022/07/25 04:08:36;;;;;;;11.45;10.50;;;;;;;24.22;61.23;95448.34;4897413;29;20579;-83
2022/07/25 04:11:02;;;;;;;10.88;9.98;;;;;;;24.34;61.34;95448.09;4897764;29;20752;-83
2022/07/25 04:13:30;;;;;;;12.77;11.48;;;;;;;24.41;60.44;95453.88;4897529;29;20245;-83
2022/07/25 04:15:57;;;;;;;11.55;10.18;;;;;;;24.41;60.68;95446.78;4898455;29;20207;-83
2022/07/25 04:18:23;;;;;;;11.63;10.65;;;;;;;24.44;60.15;95442.78;4897809;29;20207;-82
2022/07/25 04:20:49;;;;;;;10.90;10.00;;;;;;;24.52;59.88;95444.09;4897079;29;20195;-83
2022/07/25 04:23:16;;;;;;;12.73;11.55;;;;;;;24.53;60.05;95446.47;4897762;29;20234;-83
2022/07/25 04:25:42;;;;;;;12.40;11.30;;;;;;;24.55;59.35;95438.31;4897477;29;20219;-82
2022/07/25 04:28:09;;;;;;;11.50;10.40;;;;;;;24.62;59.63;95444.88;4898930;29;20207;-83
2022/07/25 04:30:37;;;;;;;12.80;11.57;;;;;;;24.73;58.94;95440.34;4898026;29;20203;-84
2022/07/25 04:33:04;;;;;;;10.88;9.95;;;;;;;24.78;59.39;95438.50;4897075;29;20250;-84
2022/07/25 04:35:30;;;;;;;13.25;11.20;;;;;;;24.78;58.89;95432.44;4898766;29;20205;-82
2022/07/25 04:37:57;;;;;;;12.32;11.32;;;;;;;24.79;58.64;95432.19;4899594;29;20199;-83
2022/07/25 04:40:23;;;;;;;12.05;11.13;;;;;;;24.87;58.54;95443.19;4899599;29;20214;-82
2022/07/25 04:42:49;;;;;;;12.32;11.13;;;;;;;24.92;58.39;95424.75;4900778;29;20234;-82
2022/07/25 04:45:16;;;;;;;11.50;10.55;;;;;;;24.97;58.15;95424.75;4899300;29;20262;-83
2022/07/25 04:47:44;;;;;;;12.20;11.20;;;;;;;25.08;57.75;95434.16;4897016;29;20203;-82
2022/07/25 04:50:10;;;;;;;12.05;11.05;;;;;;;25.11;57.52;95426.53;4898723;29;20206;-83
2022/07/25 04:52:37;;;;;;;12.23;11.23;;;;;;;25.11;57.70;95426.53;4898321;29;20246;-82
2022/07/25 04:55:04;;;;;;;11.80;10.80;;;;;;;25.18;57.50;95428.06;4899480;29;20210;-82
2022/07/25 04:57:31;;;;;;;10.80;9.90;;;;;;;25.17;57.49;95421.22;4898507;29;20205;-83
2022/07/25 04:59:57;;;;;;;11.43;10.35;;;;;;;25.18;57.36;95420.97;4897888;29;20221;-82
2022/07/25 05:02:24;;;;;;;11.93;10.90;;;;;;;25.25;57.31;95416.16;4896812;29;20226;-84
2022/07/25 05:04:52;;;;;;;11.52;10.63;;;;;;;25.32;56.92;95421.13;4897485;29;20219;-84
2022/07/25 05:07:18;;;;;;;13.38;10.93;;;;;;;25.32;56.76;95413.22;4881533;29;20230;-82
2022/07/25 05:09:45;;;;;;;11.25;10.20;;;;;;;25.32;57.01;95419.28;4886220;29;20195;-85
2022/07/25 05:12:12;;;;;;;12.95;11.23;;;;;;;25.33;57.04;95420.06;4913631;29;20793;-84
2022/07/25 05:14:38;;;;;;;17.67;13.57;;;;;;;25.48;57.21;95412.06;4915336;28;20272;-84
2022/07/25 05:17:05;;;;;;;12.43;11.23;;;;;;;25.53;56.75;95419.94;4907718;29;20207;-80
2022/07/25 05:19:32;;;;;;;11.95;10.85;;;;;;;25.71;56.48;95421.16;4901022;29;20743;-81
2022/07/25 05:21:59;;;;;;;11.80;10.60;;;;;;;25.84;55.90;95409.19;4897933;29;20218;-80
2022/07/25 05:24:26;;;;;;;12.27;11.18;;;;;;;25.92;55.57;95413.88;4897380;29;20238;-81
2022/07/25 05:26:52;;;;;;;11.07;10.13;;;;;;;26.02;55.22;95419.84;4898148;29;20195;-81
2022/07/25 05:29:19;;;;;;;10.88;9.77;;;;;;;26.14;55.30;95415.00;4897649;29;20206;-81
2022/07/25 05:31:46;;;;;;;11.23;10.13;;;;;;;26.23;55.14;95424.94;4900276;29;20222;-82
2022/07/25 05:34:12;;;;;;;11.50;10.57;;;;;;;26.18;53.83;95417.84;4898659;28;20317;-81
2022/07/25 05:36:39;;;;;;;10.65;9.85;;;;;;;26.21;53.87;95425.19;4898185;29;20238;-81
2022/07/25 05:39:07;;;;;;;10.50;9.50;;;;;;;26.08;54.52;95421.38;4897911;29;20210;-84
2022/07/25 05:41:33;;;;;;;11.00;10.20;;;;;;;26.06;54.68;95422.72;4896307;29;20218;-81
2022/07/25 05:43:59;;;;;;;12.73;11.60;;;;;;;26.02;54.69;95419.03;4896688;29;20235;-82
2022/07/25 05:46:26;;;;;;;13.77;12.68;;;;;;;26.03;54.61;95421.41;4917758;29;20233;-82
2022/07/25 05:48:52;;;;;;;11.20;10.40;;;;;;;26.07;54.57;95414.53;4908493;29;20199;-82
2022/07/25 05:51:19;;;;;;;14.18;12.95;;;;;;;26.06;54.42;95414.78;4900662;29;20231;-82
2022/07/25 05:53:46;;;;;;;11.40;10.30;;;;;;;26.10;54.75;95413.19;4900888;29;20226;-82
2022/07/25 05:56:14;;;;;;;11.90;11.00;;;;;;;26.13;54.81;95412.63;4899328;29;20199;-82
2022/07/25 05:58:41;;;;;;;11.95;10.85;;;;;;;26.24;54.75;95416.72;4899761;29;20206;-83
2022/07/25 06:01:07;;;;;;;10.95;10.05;;;;;;;26.39;54.20;95415.81;4904600;29;20254;-83
2022/07/25 06:03:34;;;;;;;11.48;10.35;;;;;;;26.53;53.61;95414.09;4904657;29;20619;-83
2022/07/25 06:06:00;;;;;;;11.25;10.18;;;;;;;26.53;53.46;95416.75;4905548;29;20229;-83
2022/07/25 06:08:27;;;;;;;11.07;9.98;;;;;;;26.68;54.01;95413.91;4904585;29;20687;-83
2022/07/25 06:10:54;;;;;;;11.05;9.57;;;;;;;26.79;53.51;95407.44;4905605;29;20273;-82
2022/07/25 06:13:22;;;;;;;11.40;10.25;;;;;;;26.89;53.60;95403.91;4904127;29;20234;-83
2022/07/25 06:15:48;;;;;;;12.75;11.48;;;;;;;26.94;53.23;95405.69;4904478;29;20292;-81
2022/07/25 06:18:18;;;;;;;16.52;14.98;;;;;;;26.95;53.20;95409.91;4904414;29;20203;-84
2022/07/25 06:20:44;;;;;;;14.85;13.55;;;;;;;27.01;53.08;95409.56;4902484;29;20207;-83
2022/07/25 06:23:11;;;;;;;14.65;13.15;;;;;;;27.09;52.58;95410.81;4904238;29;20241;-83
2022/07/25 06:25:37;;;;;;;13.45;12.10;;;;;;;27.16;52.32;95405.94;4904961;29;20750;-82
2022/07/25 06:28:04;;;;;;;12.60;11.30;;;;;;;27.24;52.16;95407.16;4908548;29;20203;-82
2022/07/25 06:30:32;;;;;;;12.85;11.23;;;;;;;27.31;52.30;95404.97;4908753;29;20207;-83
2022/07/25 06:32:59;;;;;;;11.27;10.38;;;;;;;27.37;52.29;95406.44;4903546;29;20249;-83
2022/07/25 06:35:25;;;;;;;11.75;10.68;;;;;;;27.41;51.79;95399.50;4901927;29;20202;-83
2022/07/25 06:37:52;;;;;;;11.60;10.50;;;;;;;27.47;51.99;95399.16;4896511;29;20203;-83
2022/07/25 06:40:19;;;;;;;12.13;10.38;;;;;;;27.48;51.55;95403.38;4901551;29;20246;-86
2022/07/25 06:42:46;;;;;;;11.15;10.20;;;;;;;27.53;51.78;95407.78;4901340;29;20782;-84
2022/07/25 06:45:15;;;;;;;11.48;10.38;;;;;;;27.53;51.12;95390.06;4900655;29;20226;-82
2022/07/25 06:47:43;;;;;;;11.90;10.18;;;;;;;27.53;51.18;95384.75;4903046;29;20203;-83
2022/07/25 06:50:12;;;;;;;10.48;9.48;;;;;;;27.55;51.31;95391.63;4903545;29;20218;-83
2022/07/25 06:52:39;;;;;;;10.63;9.77;;;;;;;27.60;51.09;95388.94;4901816;29;20246;-83
2022/07/25 06:55:08;;;;;;;10.77;9.98;;;;;;;27.64;50.87;95388.09;4901357;29;20667;-83
2022/07/25 06:57:36;;;;;;;11.10;10.10;;;;;;;27.69;50.82;95381.94;4901738;29;20211;-83
2022/07/25 07:00:08;;;;;;;11.63;10.43;;;;;;;27.67;50.60;95389.38;4900140;29;20211;-83
2022/07/25 07:02:34;;;;;;;10.63;9.82;;;;;;;27.55;51.43;95379.19;4902149;29;20317;-83
2022/07/25 07:05:02;;;;;;;10.70;9.68;;;;;;;27.63;51.41;95385.72;4896303;29;20313;-83
2022/07/25 07:07:28;;;;;;;11.45;10.27;;;;;;;27.71;51.30;95383.19;4899568;29;20553;-82
2022/07/25 07:09:55;;;;;;;11.20;10.10;;;;;;;27.79;51.33;95379.09;4898173;29;20218;-84
2022/07/25 07:12:21;;;;;;;10.88;9.85;;;;;;;27.79;51.35;95373.81;4896784;29;20420;-83
2022/07/25 07:14:48;;;;;;;11.35;10.10;;;;;;;27.84;50.94;95369.22;4897817;29;20218;-81
2022/07/25 07:17:14;;;;;;;10.90;9.80;;;;;;;27.88;50.81;95376.59;4906900;29;20206;-82
2022/07/25 07:19:43;;;;;;;11.13;10.02;;;;;;;27.78;50.38;95372.25;4911591;29;20234;-83
2022/07/25 07:22:11;;;;;;;10.98;10.02;;;;;;;27.89;51.06;95378.16;4899907;29;20223;-82
2022/07/25 07:24:37;;;;;;;11.55;10.23;;;;;;;27.95;50.77;95367.19;4901181;29;20257;-83
2022/07/25 07:27:04;;;;;;;10.63;9.65;;;;;;;27.99;50.61;95368.19;4900069;29;20233;-83
2022/07/25 07:29:33;;;;;;;10.27;9.48;;;;;;;28.07;50.83;95375.47;4900026;29;20206;-83
2022/07/25 07:32:00;;;;;;;13.18;10.10;;;;;;;28.13;50.52;95365.53;4897337;29;20230;-84
2022/07/25 07:34:26;;;;;;;10.88;10.07;;;;;;;28.17;50.76;95369.19;4898809;29;20235;-83
2022/07/25 07:36:53;;;;;;;10.55;9.65;;;;;;;28.26;50.44;95367.47;4899126;29;20203;-83
2022/07/25 07:39:20;;;;;;;10.50;9.70;;;;;;;28.30;50.47;95365.78;4897088;29;20213;-84
2022/07/25 07:41:47;;;;;;;11.32;9.80;;;;;;;28.36;50.62;95369.13;4900858;29;20937;-83
2022/07/25 07:44:13;;;;;;;10.55;9.75;;;;;;;28.39;50.03;95361.38;4901178;29;20231;-83
2022/07/25 07:46:40;;;;;;;10.27;9.40;;;;;;;28.48;50.35;95356.94;4899955;29;20225;-83
2022/07/25 07:49:06;;;;;;;10.60;9.80;;;;;;;28.48;50.71;95366.78;4898460;29;20207;-83
2022/07/25 07:51:33;;;;;;;10.20;9.32;;;;;;;28.50;50.48;95364.59;4898880;29;20238;-84
2022/07/25 07:56:45;;;;;;;10.27;9.57;;;;;;;28.58;50.05;95366.56;4888573;29;20295;-82
2022/07/25 07:59:12;;;;;;;10.57;9.75;;;;;;;28.72;49.65;95362.03;4898390;29;20211;-81
2022/07/25 08:01:40;;;;;;;10.80;9.80;;;;;;;28.73;49.42;95368.91;4897378;29;20262;-81
2022/07/25 08:04:06;;;;;;;11.05;9.95;;;;;;;28.86;48.51;95360.19;4898054;29;20302;-82
2022/07/25 08:06:33;;;;;;;9.93;9.13;;;;;;;28.98;49.30;95361.53;4897481;29;20711;-83
2022/07/25 08:09:00;;;;;;;10.20;9.30;;;;;;;29.11;48.99;95350.91;4897553;29;20238;-83
2022/07/25 08:11:32;;;;;;;10.52;9.68;;;;;;;29.29;47.72;95361.63;4896669;29;20235;-82
2022/07/25 08:14:00;;;;;;;10.13;9.32;;;;;;;29.41;47.24;95346.03;4895000;29;20234;-82
2022/07/25 08:16:27;;;;;;;10.45;9.60;;;;;;;29.54;47.15;95353.91;4895672;29;20199;-84
2022/07/25 08:18:53;;;;;;;10.85;9.95;;;;;;;29.65;47.09;95345.69;4896884;29;20218;-82
2022/07/25 08:21:22;;;;;;;10.63;9.73;;;;;;;29.69;46.51;95344.00;4895929;29;20227;-83
2022/07/25 08:23:50;;;;;;;10.60;9.65;;;;;;;29.75;45.83;95345.47;4896055;29;20598;-83
2022/07/25 08:26:18;;;;;;;11.02;10.13;;;;;;;29.83;46.60;95345.50;4897015;29;20234;-81
2022/07/25 08:28:44;;;;;;;11.13;10.20;;;;;;;29.92;45.86;95344.75;4897357;29;20206;-83
2022/07/25 08:31:12;;;;;;;11.02;10.02;;;;;;;29.99;45.92;95337.97;4897080;29;20218;-84
2022/07/25 08:33:38;;;;;;;10.30;9.38;;;;;;;30.04;45.51;95335.16;4890404;29;20415;-84
2022/07/25 08:36:06;;;;;;;10.40;9.50;;;;;;;30.12;45.15;95341.59;4896560;29;20213;-83
2022/07/25 08:38:34;;;;;;;10.18;9.25;;;;;;;30.14;44.89;95340.22;4896069;29;20563;-82
2022/07/25 08:41:03;;;;;;;10.25;9.45;;;;;;;30.28;44.90;95342.78;4894995;29;20293;-82
2022/07/25 08:43:31;;;;;;;10.80;9.77;;;;;;;30.34;43.92;95338.88;4895277;29;20242;-83
2022/07/25 08:46:00;;;;;;;10.35;9.55;;;;;;;30.46;43.97;95336.41;4895615;29;20230;-83
2022/07/25 08:48:32;;;;;;;12.00;9.73;;;;;;;30.46;43.40;95328.44;4894804;29;20214;-82
2022/07/25 08:50:59;;;;;;;10.18;9.30;;;;;;;30.50;43.90;95328.63;4894337;29;20245;-84
2022/07/25 08:53:28;;;;;;;10.57;9.70;;;;;;;30.62;44.27;95333.34;4892094;29;20230;-84
2022/07/25 08:55:56;;;;;;;10.07;9.27;;;;;;;30.71;43.09;95320.88;4889519;29;20211;-84
2022/07/25 08:58:27;;;;;;;10.00;9.20;;;;;;;30.92;43.07;95317.31;4896103;29;20549;-83
2022/07/25 09:00:54;;;;;;;10.23;9.32;;;;;;;31.24;41.95;95317.97;4894032;29;20249;-83
2022/07/25 09:03:20;;;;;;;10.00;9.20;;;;;;;31.39;41.37;95319.34;4894322;29;20237;-84
2022/07/25 09:05:48;;;;;;;9.30;8.60;;;;;;;31.54;41.75;95316.22;4877372;29;20230;-83
2022/07/25 09:08:18;;;;;;;10.00;9.18;;;;;;;31.51;40.81;95316.84;4876019;29;20211;-84
2022/07/25 09:10:46;;;;;;;10.63;9.73;;;;;;;31.52;41.46;95308.53;4893768;29;20671;-85
2022/07/25 09:13:14;;;;;;;10.10;9.07;;;;;;;31.40;39.95;95310.28;4894537;29;20262;-83
2022/07/25 09:15:44;;;;;;;9.73;8.73;;;;;;;31.37;39.74;95293.06;4894916;29;20195;-84
2022/07/25 09:18:18;;;;;;;11.80;9.00;;;;;;;31.60;40.69;95306.94;4895196;29;20205;-83
2022/07/25 09:20:46;;;;;;;10.20;9.40;;;;;;;31.67;40.24;95306.50;4895401;29;20203;-83
2022/07/25 09:23:26;;;;;;;9.80;9.00;;;;;;;31.67;40.33;95303.84;4897934;29;20242;-83
2022/07/25 09:25:53;;;;;;;9.77;8.82;;;;;;;31.91;40.50;95304.88;4877073;29;20234;-84
2022/07/25 09:28:23;;;;;;;10.02;9.13;;;;;;;32.11;40.17;95308.72;4876880;29;20619;-84
2022/07/25 09:30:54;;;;;;;10.10;9.20;;;;;;;32.19;39.55;95312.44;4893777;29;20575;-83
2022/07/25 09:33:21;;;;;;;10.02;9.32;;;;;;;32.35;39.00;95307.38;4894363;29;20278;-83
2022/07/25 09:35:48;;;;;;;10.02;9.00;;;;;;;32.53;39.17;95314.16;4894670;29;20209;-83
2022/07/25 09:38:17;;;;;;;9.25;8.43;;;;;;;32.29;37.92;95304.13;4894335;29;20203;-84
2022/07/25 09:40:54;;;;;;;8.93;8.23;;;;;;;32.25;37.80;95303.19;4893835;29;20218;-85
2022/07/25 09:43:21;;;;;;;9.73;8.93;;;;;;;32.43;38.42;95301.22;4893563;29;20234;-85
2022/07/25 09:45:49;;;;;;;8.90;8.20;;;;;;;32.61;37.72;95300.78;4894323;29;20606;-84
2022/07/25 09:48:18;;;;;;;9.00;8.30;;;;;;;32.74;37.36;95304.34;4900151;29;20217;-83
2022/07/25 09:50:45;;;;;;;9.77;9.05;;;;;;;32.95;37.82;95291.00;4901038;29;20203;-84
2022/07/25 09:53:11;;;;;;;8.98;8.38;;;;;;;32.95;36.70;95294.47;4901559;29;20253;-83
2022/07/25 09:55:40;;;;;;;9.55;8.85;;;;;;;32.96;37.00;95292.56;4904371;29;20218;-83
2022/07/25 09:58:07;;;;;;;9.02;8.43;;;;;;;33.12;37.18;95292.75;4903827;29;20214;-83
2022/07/25 10:00:35;;;;;;;8.85;8.25;;;;;;;33.20;36.64;95295.38;4904515;29;20209;-83
2022/07/25 10:03:16;;;;;;;9.75;8.48;;;;;;;33.46;36.63;95283.72;4903909;29;20258;-83
2022/07/25 10:05:55;;;;;;;9.23;8.45;;;;;;;33.65;36.20;95280.53;4903047;29;20199;-84
2022/07/25 10:08:23;;;;;;;9.48;8.77;;;;;;;33.68;35.96;95280.63;4903755;29;20394;-83
2022/07/25 10:10:51;;;;;;;9.00;8.25;;;;;;;33.78;36.14;95290.16;4899939;29;20272;-83
2022/07/25 10:13:30;;;;;;;8.85;8.05;;;;;;;33.71;34.94;95282.63;4901182;29;20246;-83
2022/07/25 10:15:57;;;;;;;8.95;8.10;;;;;;;33.76;34.66;95277.09;4901664;29;20194;-84
2022/07/25 10:18:26;;;;;;;10.23;9.50;;;;;;;33.79;34.90;95275.69;4895956;29;20195;-83
2022/07/25 10:20:56;;;;;;;10.88;9.95;;;;;;;33.84;34.41;95272.81;4898213;29;20211;-84
2022/07/25 10:23:24;;;;;;;10.07;7.50;;;;;;;33.92;34.00;95278.03;4896299;29;20229;-85
2022/07/25 10:26:04;;;;;;;9.40;8.52;;;;;;;33.91;33.50;95273.00;4896448;29;20678;-83
2022/07/25 10:28:40;;;;;;;9.48;8.57;;;;;;;33.94;33.08;95283.81;4893707;29;20206;-84
2022/07/25 10:31:35;;;;;;;8.38;7.55;;;;;;;34.07;33.54;95273.13;4894124;29;20207;-83
2022/07/25 10:34:03;;;;;;;8.32;7.53;;;;;;;34.29;32.92;95262.03;4886240;29;20249;-82
2022/07/25 10:36:42;;;;;;;7.88;7.38;;;;;;;34.45;32.95;95259.44;4901789;29;20207;-83
2022/07/25 10:39:10;;;;;;;10.45;7.47;;;;;;;34.46;32.97;95259.13;4901979;29;20813;-83
2022/07/25 10:41:41;;;;;;;8.48;7.78;;;;;;;34.50;32.71;95253.88;4894144;29;20226;-86
2022/07/25 10:44:45;;;;;;;11.30;7.07;;;;;;;34.58;33.08;95261.00;4893081;29;20231;-86
2022/07/25 10:47:18;;;;;;;8.02;7.43;;;;;;;34.85;32.80;95248.78;4897598;29;20301;-83
2022/07/25 10:53:17;;;;;;;8.27;7.68;;;;;;;35.23;32.05;95235.72;4868715;29;20231;-84
2022/07/25 10:55:47;;;;;;;8.70;7.70;;;;;;;35.25;32.12;95244.19;4892597;29;20195;-83
2022/07/25 10:58:14;;;;;;;8.30;7.70;;;;;;;35.24;32.19;95231.13;4903313;29;20837;-83
2022/07/25 11:00:43;;;;;;;8.13;7.43;;;;;;;35.22;31.05;95239.50;4904248;29;20697;-83
2022/07/25 11:03:10;;;;;;;7.50;6.90;;;;;;;35.24;30.35;95242.63;4904928;29;20239;-79
2022/07/25 11:05:44;;;;;;;7.43;6.30;;;;;;;35.36;29.94;95241.84;4898621;29;20214;-85
2022/07/25 11:08:13;;;;;;;11.10;6.50;;;;;;;35.37;28.84;95247.97;4903962;29;20253;-83
2022/07/25 11:10:40;;;;;;;6.80;5.82;;;;;;;35.09;27.72;95240.69;4896414;29;20218;-83
2022/07/25 11:13:11;;;;;;;11.73;5.72;;;;;;;35.15;28.06;95235.88;4907422;29;20235;-82
2022/07/25 11:15:41;;;;;;;6.80;6.10;;;;;;;35.28;27.94;95240.06;4905282;29;20207;-83
2022/07/25 11:18:08;;;;;;;6.10;5.57;;;;;;;35.37;27.77;95229.22;4903443;29;20203;-83
2022/07/25 11:20:34;;;;;;;6.03;5.63;;;;;;;35.29;27.29;95221.00;4903679;29;20213;-85
2022/07/25 11:23:01;;;;;;;5.72;5.30;;;;;;;35.26;27.74;95232.34;4905515;29;20246;-82
2022/07/25 11:25:27;;;;;;;6.45;5.80;;;;;;;35.10;26.87;95228.88;4906916;29;20222;-84
2022/07/25 11:27:58;;;;;;;7.03;6.30;;;;;;;34.97;27.55;95222.00;4903206;29;20227;-84
2022/07/25 11:30:26;;;;;;;6.47;5.88;;;;;;;35.06;27.62;95232.56;4902282;29;20207;-83
2022/07/25 11:32:56;;;;;;;7.53;5.40;;;;;;;35.35;27.71;95218.84;4900769;29;20296;-84